Time;durP1;ratioP1;P1;durP2;ratioP2;P2;SDS_P1;SDS_P2;PMS_P1;PMS_P2;Temp;Humidity;BMP_temperature;BMP_pressure;BME280_temperature;BME280_humidity;BME280_pressure;Samples;Min_cycle;Max_cycle;Signal;HPM_P1;HPM_P2
2022/08/11 00:03:56;;;;;;;9.18;8.27;;;28.10;57.30;;;;;;5008313;55;22132;-28
2022/08/11 00:08:58;;;;;;;9.63;8.63;;;28.10;57.30;;;;;;5029524;51;21006;-36
2022/08/11 00:14:00;;;;;;;8.77;7.97;;;28.10;57.30;;;;;;5009038;51;21077;-36
2022/08/11 00:19:05;;;;;;;9.32;8.43;;;28.10;57.30;;;;;;5036469;51;21049;-37
2022/08/11 00:24:06;;;;;;;8.68;7.78;;;28.10;57.30;;;;;;5030062;51;21000;-26
2022/08/11 00:29:09;;;;;;;8.90;8.00;;;28.10;57.30;;;;;;5131229;51;21058;-34
2022/08/11 00:34:11;;;;;;;8.90;8.10;;;28.10;57.30;;;;;;5023651;51;21010;-25
2022/08/11 00:39:13;;;;;;;8.50;7.70;;;28.10;57.30;;;;;;5009046;55;21544;-35
2022/08/11 00:45:42;;;;;;;9.77;7.53;;;28.10;57.30;;;;;;5016027;51;21085;-40
2022/08/11 00:51:15;;;;;;;8.55;7.75;;;28.10;57.30;;;;;;5013213;51;20977;-37
2022/08/11 00:56:58;;;;;;;8.25;7.40;;;28.10;57.40;;;;;;5013534;51;21484;-36
2022/08/11 01:03:46;;;;;;;8.73;7.82;;;28.10;57.30;;;;;;5035826;51;21002;-37
2022/08/11 01:09:15;;;;;;;8.63;7.72;;;28.10;57.40;;;;;;5030118;51;21595;-37
2022/08/11 01:19:30;;;;;;;7.80;7.10;;;28.10;57.40;;;;;;5008431;51;20994;-34
2022/08/11 01:25:08;;;;;;;8.07;7.28;;;28.10;57.30;;;;;;5066800;51;21061;-28
2022/08/11 01:30:46;;;;;;;8.00;7.30;;;28.00;57.30;;;;;;5020718;51;21034;-31
2022/08/11 01:49:14;;;;;;;7.80;7.00;;;28.10;57.40;;;;;;5007927;51;21057;-35
2022/08/11 01:54:33;;;;;;;7.95;7.22;;;28.00;57.40;;;;;;5008208;55;20974;-33
2022/08/11 01:59:47;;;;;;;7.85;7.05;;;28.00;57.40;;;;;;5061773;51;21089;-34
2022/08/11 02:08:56;;;;;;;8.60;7.80;;;28.00;57.40;;;;;;5063984;51;21017;-34
2022/08/11 02:14:25;;;;;;;8.13;7.32;;;28.00;57.40;;;;;;5023454;51;20978;-26
2022/08/11 02:25:42;;;;;;;7.50;6.70;;;28.00;57.30;;;;;;5023978;51;21042;-34
2022/08/11 02:37:23;;;;;;;7.75;7.05;;;28.00;57.30;;;;;;5008256;55;21061;-38
2022/08/11 02:42:54;;;;;;;7.18;6.53;;;28.00;57.30;;;;;;5007284;52;20970;-32
2022/08/11 02:49:55;;;;;;;7.22;6.62;;;28.00;57.40;;;;;;5089587;51;21029;-38
2022/08/11 02:55:26;;;;;;;6.65;6.05;;;28.00;57.40;;;;;;5059704;51;21535;-38
2022/08/11 03:00:29;;;;;;;7.10;6.50;;;28.00;57.30;;;;;;5007209;55;20966;-28
2022/08/11 03:08:51;;;;;;;7.68;6.57;;;28.00;57.30;;;;;;5056377;51;21144;-33
2022/08/11 03:21:31;;;;;;;7.78;6.97;;;28.00;57.30;;;;;;5017225;51;21108;-35
2022/08/11 03:26:52;;;;;;;8.05;7.25;;;28.00;57.20;;;;;;5009275;51;21021;-35
2022/08/11 03:39:12;;;;;;;6.55;6.00;;;28.00;57.20;;;;;;5010962;51;21014;-37
2022/08/11 03:47:59;;;;;;;7.35;6.45;;;28.00;57.20;;;;;;5032917;51;21460;-38
2022/08/11 03:54:46;;;;;;;7.00;6.40;;;28.00;57.10;;;;;;5008806;51;21225;-32
2022/08/11 04:01:43;;;;;;;6.80;6.10;;;27.90;57.00;;;;;;5042789;51;21002;-26
2022/08/11 04:08:42;;;;;;;7.30;6.60;;;27.90;56.90;;;;;;5060836;51;21002;-26
2022/08/11 04:17:12;;;;;;;6.80;6.10;;;27.90;56.90;;;;;;5014197;51;20982;-35
2022/08/11 04:22:44;;;;;;;8.15;6.07;;;27.90;56.80;;;;;;5009953;51;21475;-27
2022/08/11 04:28:22;;;;;;;9.25;6.30;;;27.90;56.80;;;;;;5007316;55;21040;-30
2022/08/11 04:36:11;;;;;;;8.45;6.82;;;27.90;56.80;;;;;;5020522;51;21010;-36
2022/08/11 05:09:00;;;;;;;6.93;6.18;;;27.90;56.60;;;;;;5008040;51;21567;-34
2022/08/11 05:36:17;;;;;;;8.38;7.40;;;27.80;56.50;;;;;;5007759;51;21045;-37
2022/08/11 05:57:30;;;;;;;9.02;7.80;;;27.80;56.30;;;;;;5008016;51;21001;-36
2022/08/11 06:02:31;;;;;;;11.02;8.35;;;27.90;56.50;;;;;;5023953;51;21571;-31
2022/08/11 06:07:33;;;;;;;11.40;9.30;;;27.80;56.30;;;;;;5024586;51;20966;-35
2022/08/11 06:12:36;;;;;;;10.90;8.63;;;27.80;56.30;;;;;;5022620;51;20986;-31
2022/08/11 06:17:45;;;;;;;11.12;9.15;;;27.80;56.40;;;;;;5018650;51;22236;-37
2022/08/11 06:22:54;;;;;;;11.65;9.98;;;27.80;56.40;;;;;;5084014;51;21484;-27
2022/08/11 06:27:55;;;;;;;13.05;9.68;;;27.80;56.30;;;;;;5048484;51;21017;-33
2022/08/11 06:32:56;;;;;;;14.10;9.85;;;27.80;56.30;;;;;;5007917;55;20966;-31
2022/08/11 06:39:45;;;;;;;16.35;11.45;;;27.80;56.40;;;;;;5021559;51;20978;-25
2022/08/11 06:45:07;;;;;;;13.30;10.80;;;27.80;56.30;;;;;;5024841;51;21089;-25
2022/08/11 07:00:56;;;;;;;14.98;11.73;;;27.80;56.30;;;;;;5007766;51;21006;-33
2022/08/11 07:06:37;;;;;;;12.90;11.02;;;27.80;56.30;;;;;;5026089;51;21456;-29
2022/08/11 07:28:53;;;;;;;16.23;12.30;;;27.80;56.30;;;;;;5014280;51;21638;-30
2022/08/11 07:33:35;;;;;;;22.80;18.10;;;27.80;56.70;;;;;;5007601;51;21085;-39
2022/08/11 07:38:43;;;;;;;25.88;19.27;;;27.80;56.90;;;;;;5041208;51;21100;-39
2022/08/11 07:43:47;;;;;;;31.27;22.15;;;27.80;57.00;;;;;;5005602;55;20970;-29
2022/08/11 07:54:10;;;;;;;33.03;22.73;;;27.80;56.70;;;;;;5006159;51;21053;-28
2022/08/11 08:20:44;;;;;;;39.78;26.62;;;27.90;55.90;;;;;;5011545;51;21567;-31
2022/08/11 08:25:46;;;;;;;40.12;26.62;;;27.90;55.90;;;;;;5015512;51;21535;-32
2022/08/11 08:30:50;;;;;;;38.85;26.30;;;27.90;55.90;;;;;;5090637;51;20974;-38
2022/08/11 08:36:15;;;;;;;42.88;26.37;;;27.90;55.20;;;;;;5008823;52;21488;-30
2022/08/11 08:41:27;;;;;;;45.40;27.10;;;27.90;55.90;;;;;;5033044;51;21502;-37
2022/08/11 08:46:35;;;;;;;43.60;27.95;;;27.90;55.40;;;;;;5043342;51;21005;-41
2022/08/11 08:51:39;;;;;;;45.25;27.85;;;27.90;55.30;;;;;;5008093;55;20966;-33
2022/08/11 08:56:42;;;;;;;42.55;27.37;;;27.90;55.10;;;;;;5013862;51;21236;-39
2022/08/11 09:01:58;;;;;;;44.58;26.98;;;27.90;55.40;;;;;;5021260;51;21001;-35
2022/08/11 09:07:07;;;;;;;43.03;26.75;;;27.90;55.30;;;;;;5014432;51;21026;-26
2022/08/11 09:12:10;;;;;;;41.40;27.67;;;27.90;55.90;;;;;;5026998;51;21053;-36
2022/08/11 09:17:12;;;;;;;39.33;27.92;;;28.00;55.70;;;;;;5070242;51;21541;-38
2022/08/11 09:27:38;;;;;;;43.90;29.25;;;28.00;55.50;;;;;;5036032;51;21551;-30
2022/08/11 09:32:40;;;;;;;41.83;28.08;;;28.00;55.40;;;;;;5039125;51;21037;-31
2022/08/11 09:48:26;;;;;;;66.25;37.78;;;27.90;52.50;;;;;;5007563;51;21037;-42
2022/08/11 09:53:32;;;;;;;62.22;34.38;;;27.90;51.70;;;;;;5066496;51;21484;-31
2022/08/11 09:58:33;;;;;;;45.73;29.93;;;27.80;51.70;;;;;;5025600;51;21013;-34
2022/08/11 10:03:39;;;;;;;38.28;23.30;;;27.80;51.60;;;;;;5008206;55;21058;-27
2022/08/11 10:08:43;;;;;;;29.33;17.87;;;27.80;48.50;;;;;;5023267;51;21166;-33
2022/08/11 10:19:05;;;;;;;26.30;14.87;;;27.80;41.80;;;;;;5006598;51;21029;-42
2022/08/11 10:34:51;;;;;;;22.17;14.98;;;27.90;44.50;;;;;;5007283;51;21109;-34
2022/08/11 10:39:55;;;;;;;22.75;15.10;;;27.90;44.80;;;;;;5030758;51;21034;-35
2022/08/11 10:44:57;;;;;;;23.80;16.98;;;28.00;44.80;;;;;;5020652;51;21069;-37
2022/08/11 11:00:38;;;;;;;24.20;15.70;;;28.00;44.90;;;;;;5006668;51;21061;-29
2022/08/11 11:05:40;;;;;;;21.45;15.90;;;28.00;44.90;;;;;;5007493;55;20998;-29
2022/08/11 11:10:41;;;;;;;22.80;16.05;;;28.00;44.70;;;;;;5011061;51;21052;-37
2022/08/11 11:21:13;;;;;;;21.12;15.15;;;28.10;44.70;;;;;;5035612;51;21018;-38
2022/08/11 11:29:58;;;;;;;19.98;16.25;;;28.10;44.20;;;;;;5007677;55;21357;-41
2022/08/11 11:35:35;;;;;;;22.60;15.85;;;28.10;44.10;;;;;;5014883;51;21974;-30
2022/08/11 11:40:37;;;;;;;21.15;15.48;;;28.10;44.40;;;;;;5016936;51;21044;-32
2022/08/11 11:45:41;;;;;;;15.98;11.12;;;28.10;43.80;;;;;;5017491;51;21033;-29
2022/08/11 11:50:42;;;;;;;12.57;8.68;;;28.00;39.30;;;;;;5029122;51;20980;-36
2022/08/11 11:55:44;;;;;;;12.60;9.43;;;28.00;36.70;;;;;;5015869;51;21427;-43
2022/08/11 12:06:07;;;;;;;15.68;10.55;;;28.00;37.50;;;;;;5007923;51;20994;-33
2022/08/11 12:16:30;;;;;;;14.20;11.52;;;27.90;37.20;;;;;;5006879;55;21571;-29
2022/08/11 12:21:33;;;;;;;15.30;11.80;;;27.90;37.30;;;;;;5006937;55;21041;-29
2022/08/11 12:33:07;;;;;;;19.12;15.60;;;28.00;38.00;;;;;;5017673;51;22025;-43
2022/08/11 12:38:09;;;;;;;16.87;14.32;;;28.00;38.70;;;;;;5027019;51;21070;-43
2022/08/11 12:54:21;;;;;;;18.27;12.55;;;28.00;39.00;;;;;;5008421;51;21006;-35
2022/08/11 13:04:55;;;;;;;17.12;12.45;;;28.00;38.30;;;;;;5036422;51;21053;-36
2022/08/11 13:09:57;;;;;;;15.60;12.32;;;28.00;39.00;;;;;;5050790;51;22263;-40
2022/08/11 13:15:00;;;;;;;15.63;12.20;;;28.00;39.90;;;;;;5005795;51;21621;-32
2022/08/11 13:20:02;;;;;;;13.05;11.65;;;28.00;40.40;;;;;;5003718;55;21037;-34
2022/08/11 13:25:04;;;;;;;16.37;12.20;;;27.90;40.80;;;;;;5003697;52;21037;-34
2022/08/11 13:37:46;;;;;;;14.18;12.20;;;27.90;41.40;;;;;;5045280;51;21069;-34
2022/08/11 13:42:48;;;;;;;13.65;11.77;;;27.90;42.10;;;;;;5028698;51;21002;-26
2022/08/11 13:47:54;;;;;;;13.55;12.15;;;27.90;42.20;;;;;;5044891;51;20982;-27
2022/08/11 13:52:55;;;;;;;15.57;12.50;;;27.90;42.60;;;;;;5047152;51;20982;-28
2022/08/11 13:57:56;;;;;;;14.57;12.23;;;27.90;42.90;;;;;;5023522;51;21709;-29
2022/08/11 14:02:58;;;;;;;15.00;12.20;;;27.90;42.90;;;;;;5050222;51;21005;-26
2022/08/11 14:08:01;;;;;;;12.82;11.55;;;27.90;43.60;;;;;;5021911;51;21022;-36
2022/08/11 14:18:38;;;;;;;15.13;12.23;;;27.90;43.80;;;;;;5007323;51;21860;-30
2022/08/11 14:23:46;;;;;;;13.63;11.87;;;27.90;44.30;;;;;;5011504;51;21070;-38
2022/08/11 14:28:48;;;;;;;14.57;11.90;;;27.90;44.50;;;;;;5060877;51;21519;-35
2022/08/11 14:33:51;;;;;;;13.52;11.48;;;27.90;44.70;;;;;;5061608;51;21002;-25
2022/08/11 14:38:53;;;;;;;15.48;11.57;;;27.90;44.70;;;;;;5018707;51;21045;-25
2022/08/11 14:49:17;;;;;;;14.75;11.10;;;27.90;45.20;;;;;;5007206;51;21033;-30
2022/08/11 14:59:38;;;;;;;12.52;10.65;;;27.90;45.70;;;;;;5007773;51;21015;-36
2022/08/11 15:04:39;;;;;;;12.65;10.80;;;27.90;45.80;;;;;;5008116;55;21017;-26
2022/08/11 15:09:42;;;;;;;12.07;10.85;;;27.90;46.00;;;;;;5008272;55;20997;-26
2022/08/11 15:25:33;;;;;;;12.02;10.82;;;27.90;46.40;;;;;;5033817;51;21542;-29
2022/08/11 15:46:46;;;;;;;11.52;10.30;;;27.80;46.90;;;;;;5007812;51;21510;-38
2022/08/11 15:52:05;;;;;;;11.43;10.32;;;27.90;47.20;;;;;;5039431;51;21527;-34
2022/08/11 15:57:07;;;;;;;11.95;10.25;;;27.80;47.10;;;;;;5019564;51;20966;-36
2022/08/11 16:07:34;;;;;;;12.07;10.27;;;27.80;47.30;;;;;;5036032;51;20999;-26
2022/08/11 16:12:39;;;;;;;11.98;10.55;;;27.80;47.40;;;;;;5042904;51;21030;-33
2022/08/11 16:17:45;;;;;;;11.82;10.60;;;27.80;47.50;;;;;;5023742;51;21069;-34
2022/08/11 16:22:49;;;;;;;12.00;9.90;;;27.80;47.50;;;;;;5011351;51;20986;-34
2022/08/11 16:28:06;;;;;;;11.32;10.13;;;27.80;47.60;;;;;;5025818;51;21053;-38
2022/08/11 16:33:10;;;;;;;10.93;9.82;;;27.80;47.60;;;;;;5008151;51;21460;-27
2022/08/11 16:48:59;;;;;;;11.02;9.65;;;27.80;47.90;;;;;;5007796;51;21540;-35
2022/08/11 16:54:00;;;;;;;11.15;9.93;;;27.80;48.00;;;;;;5041201;51;21053;-31
2022/08/11 16:59:16;;;;;;;10.52;9.43;;;27.80;48.10;;;;;;5007165;55;21069;-34
2022/08/11 17:16:05;;;;;;;11.60;9.95;;;27.80;48.30;;;;;;5007095;55;21700;-38
2022/08/11 17:21:25;;;;;;;10.95;9.85;;;27.90;48.40;;;;;;5024858;51;21078;-36
2022/08/11 17:26:57;;;;;;;11.40;10.23;;;27.80;48.30;;;;;;5061278;51;21081;-35
2022/08/11 17:37:23;;;;;;;10.02;9.10;;;27.80;48.50;;;;;;5064586;51;21033;-26
2022/08/11 18:03:48;;;;;;;10.85;9.75;;;27.90;48.90;;;;;;5040493;51;21710;-28
